Jaragua do Sul, Brazil
Current Conditions -  °F | °C
As of 8:00 PM on Sunday 23 Nov 2014 (Local Time) from SBJV Reporting Station
Drizzle Drizzle  
Wind Chill: 70°   Ceiling: 700
Heat Index: 70°   Visibility: 2.5mi
Dew Point: 68°   Wind: 7mph
Humidity: 94%   Direction: 80°E
Pressure: 29.97"   Gusts: NA
Location:  26.48°S, 49.1°W
Report Text: SBJV 232200Z 08006KT 4000 -DZ BR BKN007 OVC020 21/20 Q1015
Loading
Personal Weather Stations






























Interactive Weather Map New forecast layout! Learn more

10-Day Weather Forecast

Advertisements
Track Severe Weather on mobile